Time;durP1;ratioP1;P1;durP2;ratioP2;P2;SDS_P1;SDS_P2;PMS_P1;PMS_P2;Temp;Humidity;BMP_temperature;BMP_pressure;BME280_temperature;BME280_humidity;BME280_pressure;Samples;Min_cycle;Max_cycle;Signal;HPM_P1;HPM_P2
2022/05/25 00:01:54;;;;;;;4.45;2.83;;;;;;;21.36;50.70;101281.28;5085397;28;20119;-54
2022/05/25 00:04:21;;;;;;;4.35;2.88;;;;;;;21.36;50.62;101281.28;5086616;28;20044;-52
2022/05/25 00:06:48;;;;;;;3.97;2.67;;;;;;;21.35;50.79;101286.84;5086644;28;20474;-53
2022/05/25 00:09:15;;;;;;;3.97;2.78;;;;;;;21.35;50.57;101284.16;5090791;28;20098;-52
2022/05/25 00:11:42;;;;;;;4.10;2.53;;;;;;;21.33;50.40;101287.00;5088874;28;20036;-52
2022/05/25 00:14:09;;;;;;;3.72;2.42;;;;;;;21.33;50.49;101287.00;5085612;28;20056;-53
2022/05/25 00:16:36;;;;;;;3.70;2.33;;;;;;;21.32;50.80;101296.13;5088654;28;20166;-54
2022/05/25 00:21:48;;;;;;;4.25;2.53;;;;;;;21.31;50.49;101291.69;5089321;28;20047;-54
2022/05/25 00:24:15;;;;;;;4.13;2.35;;;;;;;21.31;51.01;101296.25;5088132;28;20090;-53
2022/05/25 00:26:41;;;;;;;5.00;2.85;;;;;;;21.29;50.51;101292.88;5090059;28;20119;-52
2022/05/25 00:29:08;;;;;;;4.25;2.28;;;;;;;21.28;50.78;101293.88;5089849;28;20127;-54
2022/05/25 00:31:36;;;;;;;3.88;2.58;;;;;;;21.27;50.98;101305.69;5087602;28;20044;-53
2022/05/25 00:34:03;;;;;;;3.72;2.70;;;;;;;21.24;50.95;101300.59;5085579;28;21020;-54
2022/05/25 00:36:29;;;;;;;3.45;2.50;;;;;;;21.23;50.40;101293.50;5084583;28;20133;-54
2022/05/25 00:38:56;;;;;;;6.13;2.58;;;;;;;21.23;50.97;101294.38;5086349;28;20072;-53
2022/05/25 00:41:28;;;;;;;3.85;2.30;;;;;;;21.19;50.71;101301.94;5087501;28;20131;-53
2022/05/25 00:43:56;;;;;;;3.70;2.22;;;;;;;21.21;50.78;101304.47;5088738;28;20035;-54
2022/05/25 00:46:24;;;;;;;2.97;2.00;;;;;;;21.20;50.71;101298.22;5087512;28;20435;-51
2022/05/25 00:48:58;;;;;;;3.50;2.50;;;;;;;21.18;50.87;101300.22;5089114;28;20051;-52
2022/05/25 00:51:35;;;;;;;3.80;2.25;;;;;;;21.18;51.07;101294.84;5081923;28;20048;-53
2022/05/25 00:54:11;;;;;;;3.90;2.08;;;;;;;21.17;50.82;101301.25;5086204;28;20408;-52
2022/05/25 00:56:42;;;;;;;3.95;2.50;;;;;;;21.16;50.54;101302.25;5087446;28;20044;-54
2022/05/25 00:59:18;;;;;;;4.47;2.50;;;;;;;21.14;50.66;101304.25;5087819;28;20050;-52
2022/05/25 01:01:45;;;;;;;3.35;2.03;;;;;;;21.15;50.84;101310.53;5086850;28;20035;-52
2022/05/25 01:04:13;;;;;;;5.10;2.58;;;;;;;21.15;51.12;101307.81;5087960;28;20097;-52
2022/05/25 01:07:07;;;;;;;2.83;2.10;;;;;;;21.12;51.33;101310.84;5083954;28;20047;-54
2022/05/25 01:09:57;;;;;;;3.53;2.30;;;;;;;21.11;51.00;101315.38;5088263;28;20067;-52
2022/05/25 01:12:44;;;;;;;3.03;2.28;;;;;;;21.13;50.76;101317.91;5087934;28;20052;-54
2022/05/25 01:15:44;;;;;;;3.50;2.28;;;;;;;21.11;51.03;101320.78;5088513;28;20066;-53
2022/05/25 01:18:28;;;;;;;3.15;1.80;;;;;;;21.10;50.62;101319.06;5089891;28;20513;-52
2022/05/25 01:21:05;;;;;;;4.35;2.28;;;;;;;21.10;50.79;101312.84;5088898;28;20127;-53
2022/05/25 01:23:58;;;;;;;3.47;2.22;;;;;;;21.08;51.21;101318.41;5088330;28;20088;-54
2022/05/25 01:26:52;;;;;;;2.72;2.03;;;;;;;21.09;50.80;101316.56;5086891;28;20411;-52
2022/05/25 01:29:22;;;;;;;3.28;2.15;;;;;;;21.09;51.27;101319.25;5086320;28;20119;-53
2022/05/25 01:31:59;;;;;;;3.40;2.17;;;;;;;21.06;50.92;101325.78;5085915;28;20419;-52
2022/05/25 01:34:39;;;;;;;4.28;2.50;;;;;;;21.05;51.09;101323.28;5086714;28;20079;-54
2022/05/25 01:37:14;;;;;;;3.50;2.08;;;;;;;21.05;50.81;101325.97;5088011;28;20052;-52
2022/05/25 01:39:55;;;;;;;3.22;2.10;;;;;;;21.05;50.83;101332.19;5084856;28;20101;-54
2022/05/25 01:42:28;;;;;;;2.67;1.83;;;;;;;21.05;50.90;101328.66;5084239;28;20044;-51
2022/05/25 01:45:01;;;;;;;3.38;1.98;;;;;;;21.04;51.18;101330.53;5089503;28;20054;-53
2022/05/25 01:47:31;;;;;;;4.07;2.53;;;;;;;21.05;51.07;101339.44;5085054;28;20860;-49
2022/05/25 01:50:08;;;;;;;3.28;1.73;;;;;;;21.02;51.32;101332.50;5087778;28;20047;-53
2022/05/25 01:52:39;;;;;;;3.38;1.90;;;;;;;21.02;51.16;101329.81;5076718;28;20035;-50
2022/05/25 01:55:12;;;;;;;3.63;1.90;;;;;;;21.02;50.99;101329.81;5077093;28;20066;-52
2022/05/25 01:57:46;;;;;;;2.78;1.95;;;;;;;21.01;51.15;101330.84;5084755;28;20126;-53
2022/05/25 02:00:37;;;;;;;2.95;1.70;;;;;;;20.99;51.14;101335.56;5086489;28;20481;-53
2022/05/25 02:06:15;;;;;;;2.17;1.83;;;;;;;20.98;51.50;101336.53;5085985;28;20071;-51
2022/05/25 02:08:53;;;;;;;3.22;2.00;;;;;;;20.98;50.90;101335.69;5085197;28;20050;-52
2022/05/25 02:11:24;;;;;;;2.85;1.90;;;;;;;20.97;51.17;101337.56;5086701;28;20127;-53
2022/05/25 02:14:28;;;;;;;3.60;1.85;;;;;;;20.97;51.23;101342.94;5086985;28;20105;-54
2022/05/25 02:17:07;;;;;;;2.47;1.85;;;;;;;20.97;51.15;101342.94;5086447;28;20048;-53
2022/05/25 02:19:58;;;;;;;2.22;1.65;;;;;;;20.95;51.30;101347.66;5086663;28;20048;-53
2022/05/25 02:22:43;;;;;;;2.55;1.83;;;;;;;20.94;50.82;101337.88;5082767;28;20052;-53
2022/05/25 02:25:18;;;;;;;4.68;2.08;;;;;;;20.93;51.16;101344.28;5085834;28;20424;-53
2022/05/25 02:27:56;;;;;;;3.15;1.80;;;;;;;20.93;51.25;101338.88;5088078;28;20054;-52
2022/05/25 02:30:25;;;;;;;2.00;1.58;;;;;;;20.91;51.22;101338.22;5086481;28;20036;-51
2022/05/25 02:32:58;;;;;;;2.45;1.33;;;;;;;20.91;51.25;101336.34;5085341;28;20035;-53
2022/05/25 02:35:26;;;;;;;2.28;1.55;;;;;;;20.90;51.35;101345.44;5087677;28;20036;-52
2022/05/25 02:37:58;;;;;;;2.85;1.80;;;;;;;20.88;51.56;101343.91;5083471;28;20415;-53
2022/05/25 02:40:27;;;;;;;3.55;2.08;;;;;;;20.90;50.99;101349.97;5085213;28;20086;-53
2022/05/25 02:42:54;;;;;;;2.08;1.70;;;;;;;20.88;51.16;101346.59;5085421;28;20398;-54
2022/05/25 02:45:21;;;;;;;2.63;1.60;;;;;;;20.87;51.17;101344.94;5086643;28;20046;-53
2022/05/25 02:47:48;;;;;;;2.88;1.52;;;;;;;20.85;51.15;101350.44;5087142;28;20092;-52
2022/05/25 02:50:15;;;;;;;3.90;1.95;;;;;;;20.85;51.61;101347.75;5085690;28;20044;-54
2022/05/25 02:52:41;;;;;;;3.10;1.70;;;;;;;20.85;50.81;101360.38;5083860;28;20143;-52
2022/05/25 02:55:08;;;;;;;4.18;1.63;;;;;;;20.83;50.98;101363.25;5087422;28;20047;-51
2022/05/25 02:57:34;;;;;;;2.70;1.80;;;;;;;20.84;51.02;101362.25;5081605;28;20063;-54
2022/05/25 03:00:03;;;;;;;4.18;1.50;;;;;;;20.84;50.90;101366.78;5065366;28;20044;-50
2022/05/25 03:02:29;;;;;;;2.97;1.63;;;;;;;20.83;50.85;101365.94;5086844;28;20043;-52
2022/05/25 03:04:56;;;;;;;2.22;1.40;;;;;;;20.82;51.08;101364.25;5084705;28;20050;-52
2022/05/25 03:07:22;;;;;;;3.13;1.70;;;;;;;20.80;51.28;101362.72;5087224;28;20039;-54
2022/05/25 03:09:50;;;;;;;3.53;1.40;;;;;;;20.80;51.22;101368.13;5083978;28;20040;-53
2022/05/25 03:12:18;;;;;;;3.75;1.92;;;;;;;20.80;51.45;101368.13;5083911;28;20040;-54
2022/05/25 03:14:44;;;;;;;3.28;1.88;;;;;;;20.79;51.28;101369.97;5085434;28;20291;-54
2022/05/25 03:17:14;;;;;;;2.83;1.55;;;;;;;20.76;51.37;101364.88;5087324;28;20119;-54
2022/05/25 03:19:51;;;;;;;1.55;1.30;;;;;;;20.77;51.10;101365.72;5084810;28;20059;-53
2022/05/25 03:22:19;;;;;;;2.83;2.00;;;;;;;20.77;50.75;101373.81;5086286;28;20082;-54
2022/05/25 03:24:46;;;;;;;1.52;1.35;;;;;;;20.76;51.06;101374.81;5084740;28;20077;-54
2022/05/25 03:27:13;;;;;;;3.15;1.42;;;;;;;20.75;50.65;101375.84;5086671;28;20043;-52
2022/05/25 03:29:40;;;;;;;2.13;1.30;;;;;;;20.74;51.44;101374.13;5083044;28;20048;-52
2022/05/25 03:32:07;;;;;;;2.80;1.75;;;;;;;20.73;51.36;101380.53;5082296;28;20048;-53
2022/05/25 03:34:33;;;;;;;3.28;1.50;;;;;;;20.73;51.43;101380.53;5083886;28;20331;-55
2022/05/25 03:37:00;;;;;;;1.95;1.42;;;;;;;20.72;51.51;101373.44;5086762;28;20182;-52
2022/05/25 03:39:28;;;;;;;5.53;1.70;;;;;;;20.69;51.61;101380.84;5087082;28;20053;-52
2022/05/25 03:42:06;;;;;;;2.30;1.17;;;;;;;20.69;51.56;101382.69;5085677;28;20040;-53
2022/05/25 03:44:34;;;;;;;2.47;1.60;;;;;;;20.68;51.29;101395.31;5091061;28;20123;-53
2022/05/25 03:47:03;;;;;;;4.13;1.52;;;;;;;20.67;51.21;101390.09;5088568;28;20131;-52
2022/05/25 03:49:29;;;;;;;4.65;1.40;;;;;;;20.69;50.95;101391.59;5089545;28;20060;-54
2022/05/25 03:51:56;;;;;;;2.10;1.35;;;;;;;20.69;51.31;101396.16;5089862;28;20055;-53
2022/05/25 03:54:22;;;;;;;2.25;1.45;;;;;;;20.68;51.42;101397.16;5090086;28;20046;-54
2022/05/25 03:56:49;;;;;;;1.30;1.02;;;;;;;20.66;51.72;101391.94;5090391;28;20434;-53
2022/05/25 03:59:15;;;;;;;1.67;1.10;;;;;;;20.67;51.14;101392.78;5090096;28;20050;-54
2022/05/25 04:01:42;;;;;;;4.03;1.60;;;;;;;20.66;51.05;101401.84;5087436;28;20127;-53
2022/05/25 04:04:09;;;;;;;2.17;1.40;;;;;;;20.66;50.88;101402.72;5089067;28;20048;-53
2022/05/25 04:06:36;;;;;;;2.60;1.40;;;;;;;20.66;51.44;101399.16;5089140;28;20127;-53
2022/05/25 04:09:03;;;;;;;2.55;1.30;;;;;;;20.64;51.22;101399.31;5088858;28;20051;-53
2022/05/25 04:11:30;;;;;;;2.15;1.27;;;;;;;20.63;51.49;101405.72;5088868;28;20055;-54
2022/05/25 04:13:56;;;;;;;3.53;1.40;;;;;;;20.62;51.58;101406.72;5087303;28;20343;-54
2022/05/25 04:16:23;;;;;;;3.90;1.55;;;;;;;20.63;51.14;101410.28;5087788;28;20050;-52
2022/05/25 04:18:50;;;;;;;2.55;1.38;;;;;;;20.62;51.06;101405.84;5085863;28;20085;-53
2022/05/25 04:21:16;;;;;;;2.78;1.40;;;;;;;20.61;51.11;101410.41;5087209;28;20148;-53
2022/05/25 04:23:43;;;;;;;3.10;1.20;;;;;;;20.61;51.34;101404.19;5088633;28;20067;-51
2022/05/25 04:26:10;;;;;;;3.53;1.50;;;;;;;20.61;50.98;101399.63;5087381;28;20054;-51
2022/05/25 04:28:37;;;;;;;2.50;1.25;;;;;;;20.60;51.56;101395.25;5088666;28;20387;-50
2022/05/25 04:31:04;;;;;;;1.95;1.23;;;;;;;20.61;51.07;101398.78;5086601;28;20050;-52
2022/05/25 04:33:31;;;;;;;2.92;1.65;;;;;;;20.61;51.59;101405.00;5083329;28;20047;-52
2022/05/25 04:35:58;;;;;;;1.88;0.95;;;;;;;20.62;51.76;101403.16;5088651;28;20360;-54
2022/05/25 04:38:24;;;;;;;1.38;1.10;;;;;;;20.63;51.41;101410.28;5083614;28;20131;-51
2022/05/25 04:40:51;;;;;;;2.65;1.30;;;;;;;20.65;51.42;101405.56;5080002;28;20044;-51
2022/05/25 04:43:24;;;;;;;4.03;1.30;;;;;;;20.64;51.58;101410.09;5084940;28;20070;-49
2022/05/25 04:45:53;;;;;;;1.92;1.17;;;;;;;20.66;51.75;101409.94;5083284;28;20043;-53
2022/05/25 04:48:23;;;;;;;2.55;1.27;;;;;;;20.67;51.20;101398.19;5083251;28;20057;-53
2022/05/25 04:50:51;;;;;;;2.85;1.50;;;;;;;20.69;51.78;101402.38;5090921;28;20050;-54
2022/05/25 04:53:20;;;;;;;3.20;1.38;;;;;;;20.71;51.71;101404.94;5083427;28;20044;-52
2022/05/25 04:58:35;;;;;;;3.50;1.50;;;;;;;20.73;51.64;101408.31;5080126;28;20051;-52
2022/05/25 05:01:04;;;;;;;4.13;1.38;;;;;;;20.75;51.31;101400.09;5083103;28;20340;-52
2022/05/25 05:03:31;;;;;;;3.05;1.10;;;;;;;20.77;50.89;101401.59;5086318;28;20048;-52
2022/05/25 05:05:58;;;;;;;6.13;2.03;;;;;;;20.78;51.04;101397.06;5087434;28;20109;-50
2022/05/25 05:08:25;;;;;;;2.50;1.52;;;;;;;20.79;51.10;101402.31;5086040;28;20054;-53
2022/05/25 05:10:53;;;;;;;2.58;1.50;;;;;;;20.81;50.29;101404.81;5090383;28;20036;-50
2022/05/25 05:13:20;;;;;;;3.80;2.20;;;;;;;20.82;50.90;101395.72;5090752;28;20039;-53
2022/05/25 05:15:50;;;;;;;3.42;1.67;;;;;;;20.81;50.47;101400.28;5088911;28;20044;-54
2022/05/25 05:18:18;;;;;;;3.20;1.80;;;;;;;20.83;50.76;101405.53;5086230;28;20357;-52
2022/05/25 05:20:44;;;;;;;3.47;1.75;;;;;;;20.81;51.07;101402.13;5089751;28;20039;-52
2022/05/25 05:23:12;;;;;;;2.30;1.38;;;;;;;20.79;50.49;101404.16;5086847;28;20071;-53
2022/05/25 05:25:39;;;;;;;3.28;1.75;;;;;;;20.78;50.70;101403.28;5089295;28;20044;-52
2022/05/25 05:28:17;;;;;;;3.70;2.08;;;;;;;20.77;50.78;101406.97;5083732;28;20063;-53
2022/05/25 05:30:49;;;;;;;5.70;2.58;;;;;;;20.76;50.15;101409.84;5087081;28;20039;-53
2022/05/25 05:33:20;;;;;;;6.30;2.53;;;;;;;20.74;50.40;101404.59;5088360;28;20310;-52
2022/05/25 05:35:52;;;;;;;3.70;2.17;;;;;;;20.73;50.59;101405.59;5091966;28;20071;-54
2022/05/25 05:38:20;;;;;;;5.38;1.98;;;;;;;20.72;50.28;101395.00;5088858;28;20391;-53
2022/05/25 05:40:48;;;;;;;4.18;2.42;;;;;;;20.72;50.74;101412.00;5088909;28;20047;-53
2022/05/25 05:43:14;;;;;;;4.65;2.45;;;;;;;20.72;50.30;101405.78;5092031;28;20066;-54
2022/05/25 05:45:44;;;;;;;5.03;2.60;;;;;;;20.72;50.55;101413.84;5090825;28;20036;-54
2022/05/25 05:48:20;;;;;;;3.80;2.42;;;;;;;20.72;50.37;101411.16;5089456;28;20052;-52
2022/05/25 05:50:49;;;;;;;5.88;2.88;;;;;;;20.73;50.25;101418.25;5087967;28;20411;-52
2022/05/25 05:53:16;;;;;;;5.72;2.75;;;;;;;20.73;49.82;101415.53;5087136;28;20835;-54
2022/05/25 05:55:45;;;;;;;3.60;2.10;;;;;;;20.72;50.13;101413.84;5086807;28;20052;-52
2022/05/25 05:58:11;;;;;;;4.88;2.42;;;;;;;20.72;50.50;101414.69;5089817;28;20101;-53
2022/05/25 06:00:39;;;;;;;5.13;2.67;;;;;;;20.73;50.27;101418.25;5090337;28;20243;-52
2022/05/25 06:03:05;;;;;;;4.25;2.42;;;;;;;20.72;49.75;101412.00;5085996;28;20078;-50
2022/05/25 06:05:35;;;;;;;5.18;2.60;;;;;;;20.74;50.21;101420.75;5071878;28;20367;-52
2022/05/25 06:08:14;;;;;;;3.60;2.63;;;;;;;20.74;50.29;101417.22;5090898;28;20327;-52
2022/05/25 06:10:41;;;;;;;4.72;2.55;;;;;;;20.74;50.45;101425.31;5085368;28;20150;-53
2022/05/25 06:13:08;;;;;;;4.18;3.03;;;;;;;20.74;49.74;101423.47;5082650;28;20146;-53
2022/05/25 06:21:08;;;;;;;8.80;2.72;;;;;;;20.79;50.52;101428.41;5086088;28;20039;-53
2022/05/25 06:23:35;;;;;;;7.40;3.03;;;;;;;20.80;49.89;101425.53;5083373;28;20073;-53
2022/05/25 06:26:02;;;;;;;6.85;3.03;;;;;;;20.79;49.34;101425.72;5088144;28;20075;-49
2022/05/25 06:28:29;;;;;;;3.50;2.50;;;;;;;20.81;49.89;101432.59;5085156;28;20131;-52
2022/05/25 06:30:55;;;;;;;5.40;2.90;;;;;;;20.81;49.40;101435.31;5088927;28;20127;-54
2022/05/25 06:33:22;;;;;;;5.80;2.95;;;;;;;20.81;49.24;101431.75;5086436;28;20044;-53
2022/05/25 06:35:49;;;;;;;7.07;2.75;;;;;;;20.82;49.31;101436.16;5089767;28;20095;-52
2022/05/25 06:38:16;;;;;;;7.95;3.40;;;;;;;20.83;49.34;101435.16;5082101;28;20107;-53
2022/05/25 06:40:43;;;;;;;6.65;3.40;;;;;;;20.84;49.16;101443.06;5083562;28;20051;-55
2022/05/25 06:43:10;;;;;;;6.70;2.90;;;;;;;20.86;49.65;101445.59;5086626;28;20059;-53
2022/05/25 06:45:38;;;;;;;5.63;2.72;;;;;;;20.87;49.70;101456.25;5087762;28;20047;-53
2022/05/25 06:48:07;;;;;;;7.38;3.22;;;;;;;20.89;49.48;101448.84;5082109;28;20431;-53
2022/05/25 06:50:34;;;;;;;5.57;2.75;;;;;;;20.90;49.95;101452.38;5083920;28;20047;-51
2022/05/25 06:53:01;;;;;;;5.45;3.10;;;;;;;20.91;49.61;101457.63;5086762;28;20121;-52
2022/05/25 06:55:27;;;;;;;5.30;3.58;;;;;;;20.92;49.41;101458.47;5086989;28;20047;-53
2022/05/25 06:57:54;;;;;;;5.35;2.80;;;;;;;20.92;49.50;101455.75;5085408;28;20512;-54
2022/05/25 07:00:20;;;;;;;7.60;3.95;;;;;;;20.92;49.35;101466.53;5084610;28;20046;-54
2022/05/25 07:02:47;;;;;;;4.28;3.10;;;;;;;20.91;49.44;101470.25;5083869;28;20054;-52
2022/05/25 07:05:13;;;;;;;7.40;3.83;;;;;;;20.90;49.02;101466.72;5082324;28;20447;-53
2022/05/25 07:07:40;;;;;;;7.22;3.97;;;;;;;20.91;49.16;101475.63;5090617;28;20101;-55
2022/05/25 07:10:07;;;;;;;6.90;3.58;;;;;;;20.90;49.35;101479.31;5086373;28;20056;-55
2022/05/25 07:12:33;;;;;;;7.00;3.60;;;;;;;20.91;49.45;101470.25;5085043;28;20052;-53
2022/05/25 07:15:00;;;;;;;9.70;4.20;;;;;;;20.91;49.00;101481.88;5087799;28;20060;-54
2022/05/25 07:17:27;;;;;;;8.02;4.65;;;;;;;20.90;48.85;101485.56;5084663;28;20090;-55
2022/05/25 07:19:54;;;;;;;8.07;4.78;;;;;;;20.91;49.39;101491.81;5083887;28;20135;-54
2022/05/25 07:22:20;;;;;;;7.63;4.90;;;;;;;20.90;48.93;101482.00;5081549;28;20147;-53
2022/05/25 07:24:47;;;;;;;9.68;4.30;;;;;;;20.91;49.32;101484.56;5082633;28;20469;-55
2022/05/25 07:27:13;;;;;;;8.40;4.78;;;;;;;20.92;49.08;101482.72;5085585;28;20484;-55
2022/05/25 07:29:41;;;;;;;8.25;4.88;;;;;;;20.92;48.82;101490.78;5084524;28;20548;-55
2022/05/25 07:32:09;;;;;;;10.10;5.53;;;;;;;20.92;48.38;101475.47;5083297;28;20506;-53
2022/05/25 07:34:55;;;;;;;8.57;5.30;;;;;;;20.93;48.72;101487.09;5087827;28;20349;-54
2022/05/25 07:37:34;;;;;;;8.68;5.32;;;;;;;20.94;48.60;101488.78;5083873;28;20063;-55
2022/05/25 07:40:06;;;;;;;8.65;4.40;;;;;;;20.95;48.64;101494.03;5083740;28;20101;-55
2022/05/25 07:42:34;;;;;;;7.75;4.15;;;;;;;20.98;48.96;101500.94;5085398;28;20046;-54
2022/05/25 07:45:03;;;;;;;8.07;4.55;;;;;;;20.99;48.77;101499.13;5085712;28;20347;-55
2022/05/25 07:47:31;;;;;;;8.30;4.60;;;;;;;21.00;48.80;101504.34;5083198;28;20056;-54
2022/05/25 07:49:58;;;;;;;8.90;4.93;;;;;;;21.01;48.93;101502.47;5085937;28;20129;-55
2022/05/25 07:52:28;;;;;;;8.70;5.15;;;;;;;21.02;48.85;101498.78;5084536;28;20127;-54
2022/05/25 07:54:56;;;;;;;8.63;5.13;;;;;;;21.01;48.83;101500.63;5079466;28;20323;-55
2022/05/25 07:57:22;;;;;;;7.32;4.47;;;;;;;21.03;48.52;101503.19;5083765;28;20138;-56
2022/05/25 07:59:49;;;;;;;9.85;5.00;;;;;;;21.03;48.95;101504.03;5087543;28;20062;-54
2022/05/25 08:07:58;;;;;;;9.88;4.80;;;;;;;21.04;48.65;101505.72;5086104;28;20380;-55
2022/05/25 08:10:26;;;;;;;7.90;4.68;;;;;;;21.05;48.59;101503.84;5087229;28;20035;-55
2022/05/25 08:12:55;;;;;;;12.02;5.95;;;;;;;21.05;48.77;101503.84;5079101;28;20156;-55
2022/05/25 08:15:23;;;;;;;9.38;4.90;;;;;;;21.04;48.70;101508.41;5082651;28;20131;-53
2022/05/25 08:17:49;;;;;;;7.95;4.97;;;;;;;21.06;48.95;101508.22;5083410;28;20127;-54
2022/05/25 08:20:17;;;;;;;9.25;5.30;;;;;;;21.06;49.14;101501.00;5084134;28;20459;-54
2022/05/25 08:22:43;;;;;;;8.73;5.75;;;;;;;21.07;49.03;101505.41;5086971;28;20419;-56
2022/05/25 08:25:12;;;;;;;9.98;5.35;;;;;;;21.07;48.80;101502.72;5085590;28;20047;-54
2022/05/25 08:27:41;;;;;;;9.57;4.97;;;;;;;21.07;48.23;101494.63;5079602;28;20304;-55
2022/05/25 08:30:11;;;;;;;9.52;5.55;;;;;;;21.08;49.01;101493.59;5083482;28;20110;-54
2022/05/25 08:32:37;;;;;;;8.85;5.00;;;;;;;21.10;49.03;101494.28;5090387;28;20057;-55
2022/05/25 08:35:05;;;;;;;10.55;5.00;;;;;;;21.11;48.64;101496.00;5091104;28;20419;-55
2022/05/25 08:37:32;;;;;;;9.13;5.13;;;;;;;21.12;49.17;101505.75;5089091;28;20139;-55
2022/05/25 08:39:58;;;;;;;10.35;4.60;;;;;;;21.12;48.88;101500.38;5087718;28;20048;-53
2022/05/25 08:42:29;;;;;;;7.97;4.57;;;;;;;21.14;48.40;101501.03;5087612;28;20130;-53
2022/05/25 08:44:57;;;;;;;7.45;4.95;;;;;;;21.16;48.62;101500.91;5088750;28;20044;-54
2022/05/25 08:47:24;;;;;;;7.88;4.57;;;;;;;21.16;48.83;101484.72;5086172;28;20126;-54
2022/05/25 08:49:51;;;;;;;8.48;4.60;;;;;;;21.16;48.50;101504.44;5082936;28;20048;-55
2022/05/25 08:52:19;;;;;;;7.55;4.25;;;;;;;21.17;48.10;101502.59;5080113;28;20052;-54
2022/05/25 08:54:45;;;;;;;7.38;3.90;;;;;;;21.19;48.46;101506.00;5080368;28;20036;-53
2022/05/25 08:57:31;;;;;;;8.30;4.20;;;;;;;21.19;48.34;101498.75;5089842;28;20048;-53
2022/05/25 09:00:03;;;;;;;7.57;4.43;;;;;;;21.20;48.48;101505.81;5084317;28;20054;-55
2022/05/25 09:02:40;;;;;;;9.35;4.35;;;;;;;21.26;48.84;101495.41;5085129;28;20056;-51
2022/05/25 09:05:34;;;;;;;9.98;4.60;;;;;;;21.25;48.25;101502.66;5081938;28;20075;-55
2022/05/25 09:08:12;;;;;;;15.02;5.20;;;;;;;21.29;48.73;101503.19;5084878;28;20083;-54
2022/05/25 09:10:44;;;;;;;15.70;5.40;;;;;;;21.31;48.42;101506.56;5075872;28;21283;-55
2022/05/25 09:13:36;;;;;;;18.60;6.40;;;;;;;21.32;48.42;101508.25;5081695;28;20051;-55
2022/05/25 09:16:18;;;;;;;14.80;5.55;;;;;;;21.33;48.58;101502.72;5083457;28;20064;-55
2022/05/25 09:19:10;;;;;;;17.25;6.72;;;;;;;21.36;48.17;101499.72;5079030;28;20048;-54
2022/05/25 09:21:51;;;;;;;18.95;6.22;;;;;;;21.41;48.48;101505.47;5077296;28;20037;-54
2022/05/25 09:24:23;;;;;;;22.73;7.72;;;;;;;21.43;48.74;101506.16;5080524;28;20359;-54
2022/05/25 09:26:50;;;;;;;22.70;8.57;;;;;;;21.48;48.71;101504.84;5084191;28;20312;-54
2022/05/25 09:29:18;;;;;;;30.02;10.13;;;;;;;21.49;48.83;101510.06;5081585;28;20127;-56
2022/05/25 09:31:55;;;;;;;35.15;10.85;;;;;;;21.53;48.81;101505.19;5082427;28;20043;-53
2022/05/25 09:34:41;;;;;;;30.58;12.10;;;;;;;21.57;48.83;101520.91;5079194;28;20214;-53
2022/05/25 09:37:54;;;;;;;28.35;12.18;;;;;;;21.59;48.75;101513.50;5078441;28;20144;-52
2022/05/25 09:40:41;;;;;;;38.53;11.85;;;;;;;21.65;48.72;101523.63;5060400;28;20155;-54
2022/05/25 09:43:11;;;;;;;26.13;11.48;;;;;;;21.72;48.17;101513.06;5084602;28;20146;-55
2022/05/25 09:45:49;;;;;;;27.25;11.63;;;;;;;21.77;48.69;101504.47;5082482;28;20877;-54
2022/05/25 09:48:30;;;;;;;29.02;10.82;;;;;;;21.82;48.36;101504.81;5082101;28;20052;-55
2022/05/25 09:51:02;;;;;;;18.90;10.20;;;;;;;21.88;48.21;101505.03;5084742;28;20398;-55
2022/05/25 09:53:39;;;;;;;21.48;11.13;;;;;;;21.92;47.81;101502.84;5080001;28;20086;-55
2022/05/25 09:56:21;;;;;;;22.38;10.13;;;;;;;21.96;47.82;101500.66;5078233;28;20100;-55
2022/05/25 09:58:53;;;;;;;22.77;9.77;;;;;;;21.99;48.01;101514.69;5084097;28;20142;-56
2022/05/25 10:01:28;;;;;;;17.73;8.65;;;;;;;22.01;47.83;101501.84;5082863;28;20106;-56
2022/05/25 10:03:55;;;;;;;20.05;9.50;;;;;;;22.05;47.35;101510.47;5081283;28;20097;-55
2022/05/25 10:06:24;;;;;;;20.38;9.07;;;;;;;22.05;47.39;101502.38;5084711;28;20054;-56
2022/05/25 10:09:06;;;;;;;20.88;8.93;;;;;;;22.06;47.42;101509.47;5086041;28;20127;-54
2022/05/25 10:11:46;;;;;;;18.55;9.35;;;;;;;22.08;47.37;101513.69;5084592;28;20131;-55
2022/05/25 10:14:32;;;;;;;15.30;9.20;;;;;;;22.09;47.38;101507.28;5087932;28;20130;-55
2022/05/25 10:17:12;;;;;;;20.05;8.63;;;;;;;22.11;47.38;101524.19;5086636;28;20374;-55
2022/05/25 10:19:52;;;;;;;18.20;9.20;;;;;;;22.13;47.14;101515.94;5084409;28;20048;-54
2022/05/25 10:22:44;;;;;;;16.80;8.35;;;;;;;22.15;47.42;101522.00;5085262;28;20062;-55
2022/05/25 10:25:34;;;;;;;16.00;7.68;;;;;;;22.18;47.23;101518.97;5081558;28;20044;-55
2022/05/25 10:28:03;;;;;;;13.88;7.75;;;;;;;22.24;46.99;101520.19;5084044;28;20067;-55
2022/05/25 10:36:49;;;;;;;10.95;5.90;;;;;;;22.32;46.81;101536.41;5083450;28;20036;-55
2022/05/25 10:39:23;;;;;;;15.18;6.88;;;;;;;22.37;46.42;101552.97;5084199;28;20036;-55
2022/05/25 10:42:22;;;;;;;13.40;6.03;;;;;;;22.36;46.70;101545.88;5082152;28;20076;-54
2022/05/25 10:45:32;;;;;;;11.90;5.82;;;;;;;22.34;46.73;101543.31;5084138;28;20719;-55
2022/05/25 10:48:41;;;;;;;13.30;6.85;;;;;;;22.33;46.40;101538.94;5043885;28;20444;-55
2022/05/25 10:51:13;;;;;;;14.23;7.05;;;;;;;22.34;46.61;101542.47;4978842;28;20125;-56
2022/05/25 10:56:56;;;;;;;17.17;8.45;;;;;;;22.38;46.47;101533.03;5044858;28;20095;-56
2022/05/25 10:59:49;;;;;;;13.45;8.10;;;;;;;22.40;46.39;101534.56;5046101;28;20140;-56
2022/05/25 11:02:33;;;;;;;20.20;8.00;;;;;;;22.46;46.01;101521.41;5008106;28;20051;-56
2022/05/25 11:05:30;;;;;;;13.98;7.65;;;;;;;22.50;46.22;101518.19;5047037;28;20053;-54
2022/05/25 11:08:09;;;;;;;16.55;9.13;;;;;;;22.56;45.89;101525.66;5040722;28;20136;-55
2022/05/25 11:10:38;;;;;;;16.13;8.77;;;;;;;22.62;45.97;101532.22;5043340;28;20063;-56
2022/05/25 11:13:23;;;;;;;18.33;8.43;;;;;;;22.60;46.03;101524.31;5041008;28;20638;-53
2022/05/25 11:16:23;;;;;;;15.88;8.38;;;;;;;22.61;45.81;101525.97;5046572;28;20055;-53
2022/05/25 11:19:12;;;;;;;14.00;8.02;;;;;;;22.61;45.82;101520.59;5045806;28;20045;-54
2022/05/25 11:22:02;;;;;;;17.30;7.80;;;;;;;22.64;45.61;101520.25;5041496;28;20319;-54
2022/05/25 11:24:29;;;;;;;12.13;7.35;;;;;;;22.67;45.70;101533.44;5041977;28;20148;-53
2022/05/25 11:27:17;;;;;;;11.35;7.50;;;;;;;22.67;45.67;101527.16;5044915;28;20053;-53
2022/05/25 11:29:55;;;;;;;17.45;8.55;;;;;;;22.70;45.07;101529.53;5047813;28;20044;-55
2022/05/25 11:32:49;;;;;;;14.23;8.05;;;;;;;22.69;44.94;101527.84;5047349;28;20051;-55
2022/05/25 11:35:39;;;;;;;15.35;7.15;;;;;;;22.70;45.16;101526.84;5045465;28;20774;-55
2022/05/25 11:38:17;;;;;;;14.25;7.53;;;;;;;22.73;45.46;101528.38;5044740;28;20052;-54
2022/05/25 11:41:16;;;;;;;12.95;7.10;;;;;;;22.72;45.12;101527.53;5042929;28;21016;-53
2022/05/25 11:43:53;;;;;;;10.85;7.22;;;;;;;22.74;45.21;101532.75;5026872;28;20049;-54
2022/05/25 11:46:44;;;;;;;12.10;6.60;;;;;;;22.76;45.17;101525.34;5046443;28;20053;-54
2022/05/25 11:49:52;;;;;;;10.32;6.22;;;;;;;22.79;44.92;101525.81;5042900;28;20053;-55
2022/05/25 11:52:41;;;;;;;10.23;6.18;;;;;;;22.80;45.07;101521.28;5043783;28;20053;-56
2022/05/25 11:55:32;;;;;;;10.88;5.90;;;;;;;22.81;44.81;101521.09;5043392;28;20053;-55
2022/05/25 11:58:20;;;;;;;10.52;6.07;;;;;;;22.83;44.80;101531.72;5046653;28;20048;-54
2022/05/25 12:01:20;;;;;;;10.45;5.82;;;;;;;22.81;45.10;101529.22;5046116;28;20049;-56
2022/05/25 12:04:17;;;;;;;10.15;5.40;;;;;;;22.81;45.08;101531.91;5047169;28;20053;-54
2022/05/25 12:06:52;;;;;;;10.02;5.53;;;;;;;22.81;44.91;101531.91;5045897;28;20132;-55
2022/05/25 12:09:34;;;;;;;8.93;5.63;;;;;;;22.80;44.70;101537.50;5046137;28;20044;-56
2022/05/25 12:12:25;;;;;;;10.48;5.00;;;;;;;22.78;44.80;101526.84;5045167;28;20135;-56
2022/05/25 12:15:22;;;;;;;8.23;4.57;;;;;;;22.78;44.90;101515.19;5050904;28;20080;-57
2022/05/25 12:18:18;;;;;;;8.88;5.03;;;;;;;22.77;44.94;101535.97;5048596;28;20053;-56
2022/05/25 12:20:53;;;;;;;11.27;4.80;;;;;;;22.75;45.24;101534.44;5043822;28;20055;-56